モスクワ/シェレメーチエヴォ の空港の天気 - METARとTAF

シェレメーチエヴォ国際空港(モスクワ) ( UUEE / SVO ) - ロシア モスクワ
飛行場実況気象(Metar)
観測時間11/15 19:30 MSK (11/15 16:30 UTC)
風向・風速南南東 3m/s
視程10km以上
天気現象
全天の4割程度の雲 雲底高度 1370m
気温0℃
湿度47%
気圧1037hPa
METARUUEE 151630Z 15003MPS 120V190 9999 SCT045 00/M10 Q1037 R24L/510151 R24C/510145 NOSIG
過去の天気等 Google飛行場航空写真 Wunderground天気予報

過去48時間のMETAR

飛行場予報(TAF)
発表時間: 11/15 16:58 MSK (11/15 13:58 UTC)
予報対象時間: 15日18時 MSK ~ 16日18時 MSK
風向・風速南南東 3m/s
視程9000m
全天の8割程度の雲 雲底高度 910m
15日19時 MSK ~ 15日21時 MSK に徐々に
風向・風速不定 1m/s
15日21時 MSK ~ 16日9時 MSK に一時的に
視程900m
天気現象氷霧
全天の4割程度の雲 雲底高度 60m
TAF UUEE 151358Z 1515/1615 15003MPS 9000 BKN030 TX03/1612Z TNM06/1603Z
BECMG 1516/1518 VRB01MPS
TEMPO 1518/1606 0900 FZFG SCT002